GMTA

Details ICAO GMTA (AHU)
Name CHERIF EL IDRISSI
Region Morocco
Timezone Africa/Casablanca (UTC+0.0)
Plans Departing 19
Arriving 23
Stats Elevation 95 ft / 29 m (AMSL)
Location 35.177296° -3.839555°
Runways 1
Magnetic Variation 0.648° W
Sunrise 2018-05-21 05:08:50 UTC / 2018-05-21 05:08:50 Local
Sunset 2018-05-21 19:17:54 UTC / 2018-05-21 19:17:54 Local
Advertisement - Login to hide

Runways

ID Width Length Bearing (true) Bearing (mag) Surface Threshold Offset Overrun Length
18 148 ft / 45 m 8,234 ft / 2,510 m 172.65° 173.30° Asphalt 0 ft / 0 m 0 ft / 0 m
36 148 ft / 45 m 8,234 ft / 2,510 m 352.65° 353.30° Asphalt 0 ft / 0 m 0 ft / 0 m

Map

Weather


0- 5 10 15 20 25 30 35+ Temperature / ° C

Clouds and Precipitation
Forecast for 2018-05-21 18:00 UTC. Updated 4 hours ago

Ground ~20,000 ft ~40,000 ft Winds

METAR

GMTA 212000Z 10002KT CAVOK 19/16 Q1013 NOSIG

TAF

TAF GMTA 211700Z 2118/2224 36010KT 9999 SCT020TCU SCT200 BECMG 2120/2122 VRB02KT SCT010 BECMG 2210/2212 01010KT

Frequencies

Tower 118.70 MHz AL HOCEIMA TWR
Tower 123.90 MHz AL HOCEIMA TWR
Warning: Do not use this data for real-world aviation or navigation. No guarantee of current accuracy is given.